Time;durP1;ratioP1;P1;durP2;ratioP2;P2;SDS_P1;SDS_P2;PMS_P1;PMS_P2;Temp;Humidity;BMP_temperature;BMP_pressure;BME280_temperature;BME280_humidity;BME280_pressure;Samples;Min_cycle;Max_cycle;Signal;HPM_P1;HPM_P2
2021/07/16 00:02:14;;;;;;;3.30;2.40;;;26.90;65.70;;;;;;5024522;28;20531;-26
2021/07/16 00:04:45;;;;;;;4.00;2.17;;;27.00;66.10;;;;;;5024424;28;20962;-27
2021/07/16 00:07:16;;;;;;;1.97;1.80;;;26.90;65.60;;;;;;5023758;28;20446;-27
2021/07/16 00:09:47;;;;;;;2.07;1.97;;;26.90;65.60;;;;;;5024506;28;20528;-27
2021/07/16 00:12:18;;;;;;;1.80;1.70;;;26.70;67.00;;;;;;5023458;28;20455;-27
2021/07/16 00:14:49;;;;;;;2.20;2.00;;;26.80;67.00;;;;;;5024346;28;20461;-27
2021/07/16 00:17:21;;;;;;;4.03;2.50;;;26.80;66.70;;;;;;5024426;28;20442;-27
2021/07/16 00:19:52;;;;;;;5.77;2.70;;;26.70;66.60;;;;;;5024274;28;20536;-27
2021/07/16 00:22:23;;;;;;;3.73;2.10;;;26.50;67.40;;;;;;5023233;28;20501;-27
2021/07/16 00:24:54;;;;;;;2.40;2.30;;;26.40;67.30;;;;;;5021989;28;20485;-27
2021/07/16 00:27:25;;;;;;;2.90;2.57;;;26.30;67.70;;;;;;5016042;28;20495;-27
2021/07/16 00:29:56;;;;;;;2.60;2.40;;;26.20;68.70;;;;;;5014444;28;20442;-28
2021/07/16 00:32:29;;;;;;;2.50;2.30;;;26.20;69.50;;;;;;5013219;28;20444;-27
2021/07/16 00:35:01;;;;;;;3.57;2.53;;;26.20;69.30;;;;;;5006193;28;20536;-27
2021/07/16 00:37:32;;;;;;;2.17;1.97;;;26.10;69.70;;;;;;5022302;28;20461;-27
2021/07/16 00:40:05;;;;;;;2.57;2.37;;;25.90;69.30;;;;;;5018702;28;20478;-27
2021/07/16 00:42:36;;;;;;;3.70;2.73;;;25.90;70.70;;;;;;5018660;28;20566;-27
2021/07/16 00:45:10;;;;;;;3.53;2.27;;;25.90;69.90;;;;;;5021780;28;20442;-27
2021/07/16 00:47:43;;;;;;;3.20;2.30;;;25.90;70.40;;;;;;5004036;28;20894;-27
2021/07/16 00:50:16;;;;;;;2.93;2.60;;;25.60;70.50;;;;;;5016421;28;20461;-27
2021/07/16 00:52:47;;;;;;;4.43;1.77;;;25.60;71.20;;;;;;5017982;28;20514;-27
2021/07/16 00:55:20;;;;;;;2.60;2.40;;;25.50;71.20;;;;;;5021627;28;20474;-26
2021/07/16 00:57:51;;;;;;;2.33;2.13;;;25.70;71.50;;;;;;5022510;28;20934;-27
2021/07/16 01:00:22;;;;;;;4.20;2.17;;;25.60;70.70;;;;;;5008777;28;20455;-27
2021/07/16 01:02:55;;;;;;;4.00;2.27;;;25.50;70.10;;;;;;5013713;28;20466;-26
2021/07/16 01:05:27;;;;;;;2.80;2.43;;;25.50;70.40;;;;;;5018880;28;20515;-27
2021/07/16 01:07:58;;;;;;;2.03;1.93;;;25.40;71.60;;;;;;5013042;28;20459;-27
2021/07/16 01:10:30;;;;;;;1.70;1.60;;;25.30;71.20;;;;;;5003713;28;20455;-26
2021/07/16 01:13:01;;;;;;;2.40;2.20;;;25.20;71.30;;;;;;5012558;28;20461;-26
2021/07/16 01:15:32;;;;;;;3.10;2.60;;;25.10;73.10;;;;;;5011059;28;20479;-26
2021/07/16 01:18:06;;;;;;;3.17;2.27;;;25.20;72.00;;;;;;5019730;28;20450;-26
2021/07/16 01:20:37;;;;;;;4.17;2.70;;;25.00;73.10;;;;;;5016956;28;20609;-26
2021/07/16 01:23:17;;;;;;;7.13;2.03;;;25.10;72.00;;;;;;5007238;28;20461;-26
2021/07/16 01:25:48;;;;;;;2.00;1.90;;;25.00;72.10;;;;;;5011643;28;20453;-27
2021/07/16 01:28:20;;;;;;;2.30;1.90;;;25.00;73.00;;;;;;5021167;28;20982;-27
2021/07/16 01:30:53;;;;;;;2.30;2.10;;;25.00;71.80;;;;;;5013027;28;20478;-27
2021/07/16 01:33:24;;;;;;;2.17;1.97;;;24.90;72.30;;;;;;5017313;28;20509;-27
2021/07/16 01:35:55;;;;;;;5.90;2.70;;;24.90;71.90;;;;;;5021473;28;20465;-27
2021/07/16 01:38:28;;;;;;;7.67;2.37;;;24.90;71.60;;;;;;5018608;28;20535;-26
2021/07/16 01:41:00;;;;;;;3.80;2.30;;;24.70;71.80;;;;;;5012124;28;20483;-26
2021/07/16 01:43:30;;;;;;;2.47;2.30;;;24.70;71.80;;;;;;5007063;28;21090;-26
2021/07/16 01:46:01;;;;;;;2.13;2.03;;;24.60;72.00;;;;;;5015198;28;20472;-26
2021/07/16 01:48:33;;;;;;;2.47;2.27;;;24.60;72.30;;;;;;5009981;28;20444;-26
2021/07/16 01:51:05;;;;;;;2.30;2.10;;;24.50;72.20;;;;;;5014332;28;20521;-26
2021/07/16 01:53:37;;;;;;;3.20;2.63;;;24.50;72.20;;;;;;5021331;28;20581;-26
2021/07/16 01:56:08;;;;;;;2.47;2.13;;;24.40;72.10;;;;;;5020866;28;20455;-26
2021/07/16 01:58:39;;;;;;;2.73;2.53;;;24.30;72.40;;;;;;5005899;28;20450;-26
2021/07/16 02:01:14;;;;;;;2.20;2.00;;;24.30;73.10;;;;;;5014265;28;20498;-26
2021/07/16 02:03:46;;;;;;;1.73;1.63;;;24.30;71.90;;;;;;5014044;28;20500;-28
2021/07/16 02:06:17;;;;;;;5.23;2.30;;;24.30;72.20;;;;;;5005144;28;20474;-27
2021/07/16 02:08:50;;;;;;;2.20;2.10;;;24.30;72.70;;;;;;5014794;28;20464;-27
2021/07/16 02:11:22;;;;;;;2.33;2.13;;;24.30;71.30;;;;;;5009815;28;20489;-27
2021/07/16 02:13:55;;;;;;;3.43;2.40;;;24.20;71.90;;;;;;5008368;28;20502;-27
2021/07/16 02:16:26;;;;;;;3.40;3.10;;;24.10;72.60;;;;;;5014654;28;20439;-28
2021/07/16 02:18:57;;;;;;;3.67;3.23;;;24.00;72.30;;;;;;5019756;28;20537;-27
2021/07/16 02:21:28;;;;;;;3.40;2.90;;;24.00;72.20;;;;;;5013142;28;20562;-27
2021/07/16 02:24:00;;;;;;;6.40;3.87;;;23.90;72.40;;;;;;5018553;28;20497;-27
2021/07/16 02:26:31;;;;;;;2.27;2.17;;;23.70;72.90;;;;;;5011877;28;20479;-27
2021/07/16 02:29:02;;;;;;;2.20;2.10;;;23.70;73.40;;;;;;5005876;28;20462;-27
2021/07/16 02:31:33;;;;;;;3.30;2.20;;;23.70;72.80;;;;;;5017179;28;20493;-27
2021/07/16 02:34:05;;;;;;;2.20;2.00;;;23.60;73.30;;;;;;5021288;28;20481;-27
2021/07/16 02:36:36;;;;;;;2.03;1.83;;;23.50;73.30;;;;;;5014513;28;20426;-27
2021/07/16 02:39:27;;;;;;;2.57;2.23;;;23.50;73.50;;;;;;5007685;28;20455;-27
2021/07/16 02:41:58;;;;;;;2.43;1.73;;;23.50;73.40;;;;;;5011586;28;20454;-26
2021/07/16 02:44:29;;;;;;;1.80;1.70;;;23.40;72.90;;;;;;5013400;28;20454;-26
2021/07/16 02:47:00;;;;;;;2.83;2.00;;;23.30;72.50;;;;;;5006561;28;20463;-27
2021/07/16 02:49:31;;;;;;;2.30;1.50;;;23.20;73.40;;;;;;5019574;28;20460;-26
2021/07/16 02:52:02;;;;;;;1.93;1.73;;;23.20;73.90;;;;;;5024389;28;20440;-26
2021/07/16 02:54:35;;;;;;;1.70;1.60;;;23.10;73.80;;;;;;5021850;28;20490;-26
2021/07/16 02:57:06;;;;;;;2.20;2.10;;;23.10;74.80;;;;;;5016378;28;20459;-26
2021/07/16 02:59:37;;;;;;;2.43;1.87;;;22.90;75.80;;;;;;5017825;28;20450;-27
2021/07/16 03:02:08;;;;;;;2.00;1.90;;;22.90;76.80;;;;;;5016088;28;20432;-27
2021/07/16 03:04:39;;;;;;;2.53;1.87;;;22.80;76.10;;;;;;5011170;28;20451;-27
2021/07/16 03:07:10;;;;;;;2.00;1.80;;;22.80;76.70;;;;;;5005849;28;20490;-26
2021/07/16 03:09:43;;;;;;;1.80;1.70;;;22.80;76.40;;;;;;5011630;28;20436;-26
2021/07/16 03:12:14;;;;;;;3.33;2.20;;;22.70;77.00;;;;;;5018524;28;20433;-26
2021/07/16 03:14:45;;;;;;;2.37;2.17;;;22.60;78.00;;;;;;5010540;28;20465;-26
2021/07/16 03:17:16;;;;;;;3.53;2.27;;;22.50;78.50;;;;;;5018049;28;20475;-26
2021/07/16 03:19:47;;;;;;;2.87;2.10;;;22.50;78.20;;;;;;5017126;28;20417;-26
2021/07/16 03:22:18;;;;;;;3.03;2.03;;;22.50;78.80;;;;;;5024572;28;20464;-26
2021/07/16 03:24:51;;;;;;;2.77;2.33;;;22.30;79.30;;;;;;5020753;28;20458;-26
2021/07/16 03:27:22;;;;;;;3.17;2.00;;;22.30;79.50;;;;;;5023282;28;20479;-26
2021/07/16 03:29:52;;;;;;;2.00;1.90;;;22.20;79.80;;;;;;5016540;28;20444;-26
2021/07/16 03:32:23;;;;;;;1.97;1.63;;;22.10;80.50;;;;;;5017161;28;20478;-26
2021/07/16 03:34:54;;;;;;;3.50;2.00;;;22.00;80.90;;;;;;5020637;28;20449;-26
2021/07/16 03:37:25;;;;;;;2.23;2.10;;;21.90;81.60;;;;;;5021069;28;20429;-26
2021/07/16 03:39:59;;;;;;;2.30;2.10;;;21.90;82.00;;;;;;5011146;28;20517;-26
2021/07/16 03:42:30;;;;;;;2.13;1.93;;;21.70;82.40;;;;;;5015345;28;20451;-27
2021/07/16 03:45:01;;;;;;;2.20;2.00;;;21.60;82.90;;;;;;5013947;28;20462;-26
2021/07/16 03:47:32;;;;;;;2.57;1.67;;;21.50;84.20;;;;;;5013327;28;20455;-26
2021/07/16 03:50:02;;;;;;;1.73;1.63;;;21.40;84.50;;;;;;5018973;28;20525;-26
2021/07/16 03:52:34;;;;;;;1.67;1.57;;;21.30;85.00;;;;;;5019788;28;20764;-26
2021/07/16 03:55:09;;;;;;;2.87;1.73;;;21.20;85.10;;;;;;5020233;28;20608;-27
2021/07/16 03:57:43;;;;;;;6.57;2.37;;;21.20;85.70;;;;;;5017024;28;20452;-26
2021/07/16 04:00:16;;;;;;;3.10;1.80;;;21.00;88.10;;;;;;5005139;28;20430;-27
2021/07/16 04:02:47;;;;;;;2.60;1.50;;;20.80;88.00;;;;;;5012753;28;20453;-27
2021/07/16 04:05:18;;;;;;;1.50;1.40;;;20.70;89.90;;;;;;5010311;28;20420;-27
2021/07/16 04:07:50;;;;;;;5.07;1.90;;;20.60;89.40;;;;;;5031033;28;20434;-26
2021/07/16 04:10:24;;;;;;;3.30;1.60;;;20.50;90.10;;;;;;5004705;28;20480;-27
2021/07/16 04:12:58;;;;;;;2.10;1.90;;;20.40;90.40;;;;;;5007882;28;20530;-27
2021/07/16 04:15:30;;;;;;;3.07;1.83;;;20.30;91.00;;;;;;5007679;28;20546;-27
2021/07/16 04:18:02;;;;;;;1.70;1.60;;;20.20;91.60;;;;;;5023552;28;20503;-25
2021/07/16 04:20:34;;;;;;;3.33;1.70;;;20.10;91.40;;;;;;5020193;28;20489;-26
2021/07/16 04:23:06;;;;;;;1.70;1.60;;;20.00;91.80;;;;;;5010581;28;20534;-26
2021/07/16 04:25:39;;;;;;;5.07;1.97;;;20.00;92.10;;;;;;5021505;28;20433;-26
2021/07/16 04:28:10;;;;;;;1.70;1.60;;;19.90;91.90;;;;;;5012255;28;20945;-25
2021/07/16 04:30:41;;;;;;;1.57;1.50;;;19.90;92.30;;;;;;5004740;28;20475;-26
2021/07/16 04:33:12;;;;;;;2.73;1.70;;;19.80;92.40;;;;;;5013888;28;20537;-26
2021/07/16 04:35:43;;;;;;;2.93;1.67;;;19.70;92.90;;;;;;5010677;28;20483;-26
2021/07/16 04:38:17;;;;;;;1.73;1.57;;;19.60;92.80;;;;;;5022656;28;20903;-25
2021/07/16 04:40:51;;;;;;;4.00;1.87;;;19.50;93.10;;;;;;5021246;28;20617;-25
2021/07/16 04:43:22;;;;;;;3.23;1.70;;;19.50;93.40;;;;;;5022368;28;20522;-25
2021/07/16 04:45:53;;;;;;;2.50;2.23;;;19.40;94.00;;;;;;5021415;28;20916;-26
2021/07/16 04:48:24;;;;;;;5.07;1.80;;;19.30;94.20;;;;;;5022615;28;20425;-26
2021/07/16 04:50:55;;;;;;;1.93;1.73;;;19.20;94.50;;;;;;5008752;28;20593;-26
2021/07/16 04:53:26;;;;;;;1.70;1.60;;;19.20;94.70;;;;;;5021634;28;20440;-26
2021/07/16 04:55:59;;;;;;;2.60;1.17;;;19.10;94.60;;;;;;5021751;28;20529;-26
2021/07/16 04:58:30;;;;;;;1.60;1.50;;;19.10;94.90;;;;;;5021464;28;20521;-25
2021/07/16 05:01:01;;;;;;;2.53;1.20;;;18.90;95.50;;;;;;5005990;28;20885;-26
2021/07/16 05:03:33;;;;;;;1.60;1.50;;;18.80;95.50;;;;;;5018849;28;20522;-26
2021/07/16 05:06:04;;;;;;;2.83;1.60;;;18.80;96.00;;;;;;5003298;28;20475;-26
2021/07/16 05:08:34;;;;;;;2.63;1.53;;;18.70;96.10;;;;;;5018625;28;20514;-26
2021/07/16 05:11:07;;;;;;;2.03;1.90;;;18.70;96.20;;;;;;5018710;28;20462;-26
2021/07/16 05:13:39;;;;;;;1.70;1.60;;;18.60;96.70;;;;;;5018509;28;20434;-26
2021/07/16 05:16:11;;;;;;;1.60;1.50;;;18.50;97.10;;;;;;5011145;28;20453;-26
2021/07/16 05:18:43;;;;;;;1.60;1.20;;;18.50;97.40;;;;;;5013894;28;20758;-27
2021/07/16 05:21:15;;;;;;;1.47;1.37;;;18.40;97.80;;;;;;5021674;28;20484;-26
2021/07/16 05:23:46;;;;;;;2.90;1.60;;;18.40;97.80;;;;;;5013189;28;20473;-25
2021/07/16 05:26:19;;;;;;;2.43;1.57;;;18.40;98.00;;;;;;5015872;28;20455;-26
2021/07/16 05:28:50;;;;;;;1.70;1.60;;;18.20;98.80;;;;;;5016017;28;20450;-26
2021/07/16 05:31:21;;;;;;;2.77;2.57;;;18.20;98.60;;;;;;5017878;28;20974;-26
2021/07/16 05:33:52;;;;;;;3.23;1.60;;;18.20;98.70;;;;;;5010341;28;20534;-26
2021/07/16 05:36:23;;;;;;;2.83;2.43;;;18.10;99.20;;;;;;5014014;28;20490;-27
2021/07/16 05:38:58;;;;;;;1.93;1.40;;;18.00;99.40;;;;;;5018183;28;20518;-26
2021/07/16 05:41:30;;;;;;;3.07;1.50;;;17.90;99.90;;;;;;5017497;28;20757;-26
2021/07/16 05:44:02;;;;;;;4.93;1.47;;;17.90;99.90;;;;;;5019031;28;20450;-26
2021/07/16 05:46:33;;;;;;;1.93;1.50;;;17.80;99.90;;;;;;5022150;28;20458;-26
2021/07/16 05:49:05;;;;;;;3.07;1.10;;;17.80;99.90;;;;;;5004008;28;20935;-26
2021/07/16 05:51:36;;;;;;;2.00;1.80;;;17.80;99.90;;;;;;5019119;28;20556;-26
2021/07/16 05:54:07;;;;;;;1.73;1.37;;;17.70;99.90;;;;;;5021356;28;20458;-26
2021/07/16 05:56:43;;;;;;;1.67;1.23;;;17.70;99.90;;;;;;5022340;28;20530;-26
2021/07/16 05:59:14;;;;;;;2.00;1.80;;;17.60;99.90;;;;;;5012338;28;20496;-26
2021/07/16 06:01:45;;;;;;;1.43;1.33;;;17.60;99.90;;;;;;5013671;28;20856;-27
2021/07/16 06:04:16;;;;;;;3.10;2.80;;;17.50;99.90;;;;;;5025499;28;20465;-26
2021/07/16 06:06:49;;;;;;;1.73;1.63;;;17.50;99.90;;;;;;5008668;28;20494;-26
2021/07/16 06:09:21;;;;;;;1.67;1.37;;;17.50;99.90;;;;;;5015524;28;20461;-26
2021/07/16 06:11:54;;;;;;;1.70;1.60;;;17.40;99.90;;;;;;5016020;28;20485;-27
2021/07/16 06:14:25;;;;;;;2.93;1.50;;;17.40;99.90;;;;;;5009510;28;20509;-27
2021/07/16 06:16:56;;;;;;;1.93;1.80;;;17.30;99.90;;;;;;5022019;28;20882;-27
2021/07/16 06:19:28;;;;;;;2.17;1.43;;;17.30;99.90;;;;;;5015514;28;20609;-26
2021/07/16 06:21:59;;;;;;;2.13;1.80;;;17.30;99.90;;;;;;5015268;28;20480;-27
2021/07/16 06:24:35;;;;;;;1.67;1.23;;;17.20;99.90;;;;;;5009111;28;20450;-26
2021/07/16 06:27:08;;;;;;;2.50;1.63;;;17.20;99.90;;;;;;5013818;28;20458;-26
2021/07/16 06:29:39;;;;;;;1.60;1.50;;;17.20;99.90;;;;;;5017121;28;20458;-26
2021/07/16 06:32:10;;;;;;;2.23;1.50;;;17.10;99.90;;;;;;5021130;28;20527;-27
2021/07/16 06:34:42;;;;;;;1.23;1.13;;;17.00;99.90;;;;;;5021745;28;20497;-26
2021/07/16 06:37:13;;;;;;;1.40;1.30;;;17.00;99.90;;;;;;5024886;28;20497;-26
2021/07/16 06:39:44;;;;;;;1.93;1.80;;;17.00;99.90;;;;;;5022012;28;20494;-26
2021/07/16 06:42:17;;;;;;;2.37;1.37;;;17.10;99.90;;;;;;5015457;28;20461;-26
2021/07/16 06:44:48;;;;;;;1.60;1.50;;;17.00;99.90;;;;;;5009609;28;20486;-26
2021/07/16 06:47:19;;;;;;;1.67;1.13;;;16.90;99.90;;;;;;5023600;28;20482;-26
2021/07/16 06:49:50;;;;;;;3.37;1.80;;;16.90;99.90;;;;;;5022769;28;20569;-27
2021/07/16 06:52:21;;;;;;;1.57;1.33;;;16.80;99.90;;;;;;5017545;28;20450;-26
2021/07/16 06:54:52;;;;;;;1.50;1.40;;;16.70;99.90;;;;;;5008076;28;20450;-27
2021/07/16 06:57:25;;;;;;;1.70;1.60;;;16.70;99.90;;;;;;5013161;28;20501;-27
2021/07/16 06:59:56;;;;;;;1.20;1.10;;;16.60;99.90;;;;;;5013808;28;20869;-25
2021/07/16 07:02:26;;;;;;;2.63;1.33;;;16.60;99.90;;;;;;5014982;28;20511;-25
2021/07/16 07:04:58;;;;;;;1.67;1.50;;;16.60;99.90;;;;;;5016038;28;20765;-26
2021/07/16 07:07:29;;;;;;;2.90;1.40;;;16.60;99.90;;;;;;5018466;28;20454;-26
2021/07/16 07:10:00;;;;;;;2.40;1.13;;;16.40;99.90;;;;;;5019889;28;20458;-26
2021/07/16 07:12:33;;;;;;;1.93;1.20;;;16.40;99.90;;;;;;5011457;28;21305;-26
2021/07/16 07:15:04;;;;;;;2.60;1.60;;;16.30;99.90;;;;;;5019651;28;20450;-26
2021/07/16 07:17:38;;;;;;;1.83;1.30;;;16.40;99.90;;;;;;5004538;28;20497;-26
2021/07/16 07:20:11;;;;;;;2.50;1.30;;;16.40;99.90;;;;;;5011159;28;20454;-27
2021/07/16 07:22:42;;;;;;;1.53;1.43;;;16.30;99.90;;;;;;5018592;28;20478;-27
2021/07/16 07:25:13;;;;;;;1.37;1.27;;;16.20;99.90;;;;;;5014657;28;20486;-27
2021/07/16 07:27:46;;;;;;;1.87;1.50;;;16.20;99.90;;;;;;5010437;28;20529;-26
2021/07/16 07:30:21;;;;;;;2.20;1.70;;;16.20;99.90;;;;;;5017193;28;20546;-27
2021/07/16 07:32:52;;;;;;;1.50;1.07;;;16.20;99.90;;;;;;5008013;28;20458;-25
2021/07/16 07:35:23;;;;;;;2.00;1.37;;;16.10;99.90;;;;;;5009685;28;20454;-26
2021/07/16 07:37:54;;;;;;;1.00;0.90;;;16.10;99.90;;;;;;5003936;28;20490;-26
2021/07/16 07:40:45;;;;;;;1.47;1.37;;;16.10;99.90;;;;;;4931777;28;2283629;-26
2021/07/16 07:43:17;;;;;;;1.57;1.20;;;16.00;99.90;;;;;;5023185;28;20250;-27
2021/07/16 07:45:48;;;;;;;3.13;1.53;;;16.00;99.90;;;;;;5015718;28;20802;-28
2021/07/16 07:48:19;;;;;;;0.93;0.90;;;15.90;99.90;;;;;;5024928;28;20458;-26
2021/07/16 07:50:51;;;;;;;2.60;1.10;;;15.90;99.90;;;;;;5015477;28;20448;-26
2021/07/16 07:53:22;;;;;;;1.93;1.00;;;15.90;99.90;;;;;;5017545;28;20466;-26
2021/07/16 07:55:53;;;;;;;1.60;1.20;;;15.80;99.90;;;;;;5012731;28;20447;-26
2021/07/16 07:58:25;;;;;;;1.63;1.00;;;15.80;99.90;;;;;;5017444;28;20541;-26
2021/07/16 08:00:56;;;;;;;1.33;1.23;;;15.70;99.90;;;;;;5006230;28;20443;-25
2021/07/16 08:03:27;;;;;;;3.10;2.70;;;15.60;99.90;;;;;;5010994;28;20462;-26
2021/07/16 08:06:00;;;;;;;1.80;1.40;;;15.60;99.90;;;;;;5004104;28;21021;-26
2021/07/16 08:08:31;;;;;;;1.23;1.13;;;15.60;99.90;;;;;;5006139;28;20849;-25
2021/07/16 08:11:02;;;;;;;0.80;0.80;;;15.60;99.90;;;;;;5011616;28;20452;-25
2021/07/16 08:13:35;;;;;;;2.37;1.13;;;15.60;99.90;;;;;;5010155;28;20458;-26
2021/07/16 08:16:06;;;;;;;0.80;0.80;;;15.60;99.90;;;;;;5005442;28;20542;-25
2021/07/16 08:18:37;;;;;;;0.93;0.83;;;15.60;99.90;;;;;;5017783;28;20499;-25
2021/07/16 08:21:08;;;;;;;1.43;1.00;;;15.60;99.90;;;;;;5010835;28;20501;-26
2021/07/16 08:23:39;;;;;;;1.60;1.00;;;15.60;99.90;;;;;;5018437;28;20498;-26
2021/07/16 08:26:11;;;;;;;1.00;0.90;;;15.50;99.90;;;;;;5024066;28;20478;-27
2021/07/16 08:28:44;;;;;;;0.70;0.70;;;15.50;99.90;;;;;;5023584;28;20522;-25
2021/07/16 08:31:15;;;;;;;1.23;1.07;;;15.50;99.90;;;;;;5012189;28;20844;-25
2021/07/16 08:33:46;;;;;;;1.20;1.10;;;15.40;99.90;;;;;;5017457;28;20459;-25
2021/07/16 08:36:17;;;;;;;1.17;1.07;;;15.40;99.90;;;;;;5010157;28;20450;-25
2021/07/16 08:38:48;;;;;;;1.13;1.03;;;15.30;99.90;;;;;;5023470;28;20492;-25
2021/07/16 08:41:24;;;;;;;1.00;0.80;;;15.30;99.90;;;;;;5015039;28;20453;-24
2021/07/16 08:43:56;;;;;;;4.30;1.10;;;15.30;99.90;;;;;;5019426;28;20448;-26
2021/07/16 08:46:27;;;;;;;1.10;1.00;;;15.30;99.90;;;;;;5012546;28;20498;-25
2021/07/16 08:49:00;;;;;;;1.20;1.07;;;15.30;99.90;;;;;;5004530;28;20927;-25
2021/07/16 08:51:30;;;;;;;1.07;1.00;;;15.30;99.90;;;;;;5008290;28;20444;-25
2021/07/16 08:54:01;;;;;;;2.23;1.20;;;15.20;99.90;;;;;;5020507;28;20449;-25
2021/07/16 08:56:36;;;;;;;1.13;0.97;;;15.10;99.90;;;;;;5015854;28;20455;-25
2021/07/16 08:59:09;;;;;;;1.30;1.20;;;15.20;99.90;;;;;;5007614;28;20589;-26
2021/07/16 09:01:45;;;;;;;1.53;1.10;;;15.20;99.90;;;;;;5011375;28;20466;-25
2021/07/16 09:04:17;;;;;;;1.00;1.00;;;15.20;99.90;;;;;;5018808;28;20455;-25
2021/07/16 09:06:50;;;;;;;1.10;1.00;;;15.20;99.90;;;;;;5003175;28;20461;-25
2021/07/16 09:09:22;;;;;;;1.20;1.10;;;15.20;99.90;;;;;;5007701;28;20455;-25
2021/07/16 09:11:54;;;;;;;0.87;0.80;;;15.10;99.90;;;;;;5008814;28;20455;-25
2021/07/16 09:14:28;;;;;;;1.00;0.93;;;15.10;99.90;;;;;;5011829;28;20510;-25
2021/07/16 09:17:02;;;;;;;1.13;0.80;;;15.00;99.90;;;;;;5011237;28;20510;-25
2021/07/16 09:19:35;;;;;;;1.03;0.93;;;15.00;99.90;;;;;;5011085;28;20498;-26
2021/07/16 09:22:10;;;;;;;1.57;1.10;;;15.00;99.90;;;;;;5020360;28;20461;-26
2021/07/16 09:24:44;;;;;;;1.53;1.00;;;15.00;99.90;;;;;;5009876;28;20958;-25
2021/07/16 09:27:40;;;;;;;1.10;0.90;;;15.10;99.90;;;;;;5022532;28;20453;-26
2021/07/16 09:30:21;;;;;;;1.30;1.20;;;15.10;99.90;;;;;;5007579;28;20458;-26
2021/07/16 09:32:54;;;;;;;1.30;1.00;;;15.10;99.90;;;;;;5004636;28;20462;-26
2021/07/16 09:35:27;;;;;;;1.10;0.93;;;15.10;99.90;;;;;;5005443;28;20453;-27
2021/07/16 09:38:02;;;;;;;1.13;1.03;;;15.10;99.90;;;;;;5020266;28;20952;-26
2021/07/16 09:40:34;;;;;;;1.23;1.13;;;15.10;99.90;;;;;;5006403;28;20486;-26
2021/07/16 09:43:09;;;;;;;1.43;0.90;;;15.10;99.90;;;;;;5019073;28;20485;-26
2021/07/16 09:45:43;;;;;;;0.70;0.70;;;15.10;99.90;;;;;;5011630;28;20456;-26
2021/07/16 09:48:24;;;;;;;1.33;1.10;;;15.00;99.90;;;;;;5003768;28;20450;-25
2021/07/16 09:51:16;;;;;;;1.13;1.03;;;14.90;99.90;;;;;;5013070;28;20603;-26
2021/07/16 09:53:49;;;;;;;1.20;1.10;;;14.90;99.90;;;;;;5009786;28;20497;-26
2021/07/16 09:56:22;;;;;;;2.20;0.90;;;14.90;99.90;;;;;;5018445;28;20957;-25
2021/07/16 09:59:03;;;;;;;1.43;1.33;;;14.90;99.90;;;;;;5020077;28;20490;-26
2021/07/16 10:01:36;;;;;;;0.97;0.90;;;14.80;99.90;;;;;;5012491;28;20449;-25
2021/07/16 10:04:16;;;;;;;1.77;0.80;;;14.90;99.90;;;;;;5012754;28;20462;-26
2021/07/16 10:06:48;;;;;;;1.10;1.00;;;14.90;99.90;;;;;;5014828;28;20822;-25
2021/07/16 10:09:19;;;;;;;2.43;1.10;;;15.00;99.90;;;;;;5022950;28;20461;-25
2021/07/16 10:11:51;;;;;;;1.07;0.97;;;15.00;99.90;;;;;;5022579;28;20563;-25
2021/07/16 10:14:22;;;;;;;1.17;1.00;;;15.10;99.90;;;;;;5003836;28;20458;-26
2021/07/16 10:16:56;;;;;;;1.20;0.90;;;15.20;99.90;;;;;;5014312;28;20482;-25
2021/07/16 10:19:27;;;;;;;1.37;1.27;;;15.20;99.90;;;;;;5014929;28;20481;-25
2021/07/16 10:21:58;;;;;;;1.10;0.90;;;15.30;99.90;;;;;;5015684;28;20446;-25
2021/07/16 10:24:30;;;;;;;0.97;0.83;;;15.30;99.90;;;;;;5013136;28;20463;-25
2021/07/16 10:27:21;;;;;;;1.57;1.00;;;15.40;99.90;;;;;;5019397;28;20442;-25
2021/07/16 10:30:05;;;;;;;0.93;0.83;;;15.60;99.90;;;;;;5010669;28;20514;-25
2021/07/16 10:32:45;;;;;;;0.90;0.77;;;15.60;99.90;;;;;;5017721;28;20458;-26
2021/07/16 10:35:21;;;;;;;1.20;1.10;;;15.70;99.90;;;;;;5005558;28;20451;-26
2021/07/16 10:37:53;;;;;;;0.97;0.97;;;15.70;99.90;;;;;;5014061;28;20455;-26
2021/07/16 10:40:44;;;;;;;0.73;0.73;;;15.70;99.90;;;;;;5019554;28;20845;-25
2021/07/16 10:43:41;;;;;;;1.20;1.00;;;15.70;99.90;;;;;;5021072;28;20462;-26
2021/07/16 10:46:34;;;;;;;2.30;0.80;;;15.70;99.90;;;;;;5021503;28;20493;-26
2021/07/16 10:49:09;;;;;;;1.60;1.07;;;15.80;99.90;;;;;;5006706;28;20454;-26
2021/07/16 10:51:41;;;;;;;0.90;0.80;;;15.80;99.90;;;;;;5020199;28;20904;-25
2021/07/16 10:54:17;;;;;;;1.37;1.20;;;15.80;99.90;;;;;;5006197;28;20447;-25
2021/07/16 10:56:49;;;;;;;1.40;1.10;;;15.90;99.90;;;;;;5016751;28;20449;-26
2021/07/16 10:59:50;;;;;;;3.23;1.30;;;16.00;99.90;;;;;;5015694;28;20563;-25
2021/07/16 11:02:49;;;;;;;2.70;1.63;;;16.00;99.90;;;;;;4944532;29;20453;-26
2021/07/16 11:05:56;;;;;;;1.40;1.30;;;16.00;99.90;;;;;;4907338;29;20456;-25
2021/07/16 11:08:51;;;;;;;1.77;1.00;;;15.90;99.90;;;;;;4907343;29;20496;-26
2021/07/16 11:11:24;;;;;;;1.13;0.70;;;15.90;99.90;;;;;;4906105;29;20486;-26
2021/07/16 11:13:56;;;;;;;0.70;0.70;;;16.00;99.90;;;;;;4907119;29;20451;-26
2021/07/16 11:16:45;;;;;;;1.57;0.90;;;16.00;99.90;;;;;;4907588;29;20521;-26
2021/07/16 11:19:23;;;;;;;0.60;0.60;;;16.00;99.90;;;;;;4907107;29;20550;-26
2021/07/16 11:22:06;;;;;;;0.83;0.73;;;16.10;99.90;;;;;;4906312;29;20458;-26
2021/07/16 11:24:43;;;;;;;0.80;0.80;;;16.10;99.90;;;;;;4907328;29;20447;-26
2021/07/16 11:27:18;;;;;;;3.03;1.00;;;16.10;99.90;;;;;;4897179;29;20506;-25
2021/07/16 11:29:49;;;;;;;0.90;0.90;;;16.10;99.90;;;;;;4907102;29;20919;-26
2021/07/16 11:32:22;;;;;;;1.13;1.00;;;16.10;99.90;;;;;;4905367;29;20866;-26
2021/07/16 11:34:57;;;;;;;0.90;0.90;;;16.10;99.90;;;;;;4894030;29;21473;-26
2021/07/16 11:37:32;;;;;;;0.80;0.80;;;16.10;99.90;;;;;;4947357;29;20493;-26
2021/07/16 11:40:07;;;;;;;1.27;1.00;;;16.20;99.90;;;;;;4949901;28;20564;-26
2021/07/16 11:42:40;;;;;;;0.73;0.73;;;16.30;99.90;;;;;;5018074;28;20459;-26
2021/07/16 11:45:13;;;;;;;1.10;1.00;;;16.20;99.90;;;;;;5005115;28;20453;-26
2021/07/16 11:47:44;;;;;;;0.87;0.87;;;16.20;99.90;;;;;;5015995;28;20495;-26
2021/07/16 11:50:16;;;;;;;1.17;1.07;;;16.20;99.90;;;;;;5009968;28;20461;-25
2021/07/16 11:52:50;;;;;;;0.87;0.73;;;16.20;99.90;;;;;;5018130;28;20852;-25
2021/07/16 11:55:24;;;;;;;1.17;1.10;;;16.20;99.90;;;;;;5011950;28;20445;-26
2021/07/16 11:57:57;;;;;;;0.80;0.80;;;16.20;99.90;;;;;;5005111;28;20472;-26
2021/07/16 12:00:30;;;;;;;1.27;0.87;;;16.20;99.90;;;;;;5016912;28;20635;-25
2021/07/16 12:03:03;;;;;;;1.13;0.93;;;16.20;99.90;;;;;;5005867;28;20455;-25
2021/07/16 12:05:45;;;;;;;0.60;0.57;;;16.20;99.90;;;;;;5008090;28;20800;-24
2021/07/16 12:08:21;;;;;;;0.93;0.83;;;16.20;99.90;;;;;;5008542;28;20478;-25
2021/07/16 12:11:02;;;;;;;1.37;0.80;;;16.10;99.90;;;;;;5015907;28;20450;-26
2021/07/16 12:13:34;;;;;;;2.17;0.80;;;16.10;99.90;;;;;;5014659;28;20443;-25
2021/07/16 12:16:06;;;;;;;0.60;0.60;;;16.10;99.90;;;;;;5014308;28;20455;-26
2021/07/16 12:18:39;;;;;;;0.63;0.63;;;16.20;99.90;;;;;;5012250;28;20463;-25
2021/07/16 12:21:12;;;;;;;0.93;0.93;;;16.20;99.90;;;;;;5015990;28;20487;-25
2021/07/16 12:23:50;;;;;;;0.70;0.70;;;16.20;99.90;;;;;;5016787;28;20454;-25
2021/07/16 12:26:22;;;;;;;1.10;0.60;;;16.20;99.90;;;;;;5007759;28;20455;-26
2021/07/16 12:29:05;;;;;;;1.27;0.73;;;16.30;99.90;;;;;;5016344;28;20546;-25
2021/07/16 12:31:37;;;;;;;0.70;0.70;;;16.20;99.90;;;;;;5010950;28;20459;-26
2021/07/16 12:34:22;;;;;;;2.60;0.70;;;16.20;99.90;;;;;;5004477;28;20455;-26
2021/07/16 12:37:07;;;;;;;0.90;0.90;;;16.20;99.90;;;;;;5019857;28;20908;-25
2021/07/16 12:39:41;;;;;;;1.47;1.37;;;16.30;99.90;;;;;;5012717;28;20586;-25
2021/07/16 12:42:19;;;;;;;1.70;1.20;;;16.20;99.90;;;;;;5015681;28;20454;-25
2021/07/16 12:45:08;;;;;;;1.10;0.97;;;16.20;99.90;;;;;;5014905;28;20447;-26
2021/07/16 12:47:51;;;;;;;0.70;0.70;;;16.20;99.90;;;;;;5019202;28;20496;-25
2021/07/16 12:50:23;;;;;;;1.20;1.10;;;16.10;99.90;;;;;;5004773;28;20450;-26
2021/07/16 12:52:56;;;;;;;1.17;1.07;;;16.30;99.90;;;;;;5014526;28;20471;-25
2021/07/16 12:55:33;;;;;;;1.27;1.07;;;16.30;99.90;;;;;;5009758;28;20465;-26
2021/07/16 12:58:05;;;;;;;0.70;0.70;;;16.20;99.90;;;;;;5007332;28;20466;-26
2021/07/16 13:00:37;;;;;;;1.33;0.67;;;16.20;99.90;;;;;;5007966;28;20494;-25
2021/07/16 13:03:16;;;;;;;0.90;0.80;;;16.30;99.90;;;;;;5019247;28;20457;-25
2021/07/16 13:05:48;;;;;;;1.20;1.10;;;16.30;99.90;;;;;;5014939;28;20456;-25
2021/07/16 13:08:23;;;;;;;0.80;0.80;;;16.40;99.90;;;;;;5023464;28;20461;-26
2021/07/16 13:10:58;;;;;;;0.80;0.80;;;16.20;99.90;;;;;;5011937;28;20458;-25
2021/07/16 13:13:30;;;;;;;0.80;0.80;;;16.20;99.90;;;;;;5018287;28;20445;-26
2021/07/16 13:16:12;;;;;;;1.20;0.90;;;16.10;99.90;;;;;;5012667;28;20576;-25
2021/07/16 13:18:46;;;;;;;1.00;1.00;;;16.00;99.90;;;;;;5014458;28;20537;-26
2021/07/16 13:21:18;;;;;;;1.30;1.00;;;16.00;99.90;;;;;;5007389;28;20489;-26